Time;durP1;ratioP1;P1;durP2;ratioP2;P2;SDS_P1;SDS_P2;PMS_P1;PMS_P2;Temp;Humidity;BMP_temperature;BMP_pressure;BME280_temperature;BME280_humidity;BME280_pressure;Samples;Min_cycle;Max_cycle;Signal;HPM_P1;HPM_P2
2022/08/30 00:01:08;;;;;;;0.30;0.30;;;;;;;17.71;72.12;102385.00;2100193;28;20052;-69
2022/08/30 00:02:15;;;;;;;0.40;0.40;;;;;;;17.67;72.59;102380.59;2099696;28;20087;-69
2022/08/30 00:03:17;;;;;;;0.40;0.40;;;;;;;17.70;72.58;102388.09;2106346;28;20079;-69
2022/08/30 00:04:20;;;;;;;0.40;0.40;;;;;;;17.69;72.45;102386.50;2103898;28;20426;-69
2022/08/30 00:05:23;;;;;;;0.40;0.40;;;;;;;17.66;72.45;102387.97;2101581;28;20091;-69
2022/08/30 00:06:27;;;;;;;0.40;0.40;;;;;;;17.69;72.62;102386.50;2102780;28;20053;-69
2022/08/30 00:07:29;;;;;;;0.30;0.30;;;;;;;17.67;72.37;102384.13;2101774;28;20654;-69
2022/08/30 00:08:35;;;;;;;0.30;0.30;;;;;;;17.66;72.47;102377.06;2101722;28;20052;-69
2022/08/30 00:09:37;;;;;;;0.40;0.40;;;;;;;17.65;72.43;102380.94;2104821;28;20052;-70
2022/08/30 00:10:41;;;;;;;0.40;0.40;;;;;;;17.64;72.54;102384.03;2102443;28;20788;-69
2022/08/30 00:11:43;;;;;;;0.40;0.40;;;;;;;17.65;72.48;102385.59;2102595;28;20055;-69
2022/08/30 00:12:47;;;;;;;0.40;0.40;;;;;;;17.64;72.49;102379.38;2105615;28;20059;-69
2022/08/30 00:13:52;;;;;;;0.32;0.32;;;;;;;17.64;72.05;102384.84;2104718;28;20523;-70
2022/08/30 00:14:55;;;;;;;0.40;0.40;;;;;;;17.61;72.56;102384.72;2104603;28;20135;-69
2022/08/30 00:15:57;;;;;;;0.40;0.40;;;;;;;17.62;72.45;102378.91;2102105;28;20087;-69
2022/08/30 00:17:00;;;;;;;0.40;0.40;;;;;;;17.61;72.31;102384.72;2098804;28;20552;-69
2022/08/30 00:18:03;;;;;;;0.38;0.38;;;;;;;17.60;72.17;102381.19;2097830;28;20048;-69
2022/08/30 00:19:06;;;;;;;0.40;0.40;;;;;;;17.60;72.28;102383.16;2104562;28;20051;-69
2022/08/30 00:20:11;;;;;;;0.30;0.30;;;;;;;17.60;72.41;102383.94;2105067;28;20048;-69
2022/08/30 00:21:15;;;;;;;0.38;0.38;;;;;;;17.57;72.62;102372.91;2104246;28;20052;-69
2022/08/30 00:22:17;;;;;;;0.40;0.40;;;;;;;17.57;72.70;102387.38;2104656;28;20591;-69
2022/08/30 00:23:20;;;;;;;0.40;0.40;;;;;;;17.56;72.94;102377.59;2104001;28;20068;-69
2022/08/30 00:24:23;;;;;;;0.30;0.30;;;;;;;17.58;72.62;102383.47;2099066;28;20067;-69
2022/08/30 00:25:27;;;;;;;0.30;0.30;;;;;;;17.57;72.63;102378.38;2090085;28;20053;-69
2022/08/30 00:26:28;;;;;;;0.30;0.30;;;;;;;17.56;72.55;102382.25;2098963;28;20052;-69
2022/08/30 00:27:31;;;;;;;0.30;0.30;;;;;;;17.58;72.36;102377.25;2102516;28;20051;-68
2022/08/30 00:28:34;;;;;;;0.40;0.40;;;;;;;17.57;72.54;102378.38;2106082;28;20476;-69
2022/08/30 00:29:37;;;;;;;0.30;0.30;;;;;;;17.57;72.66;102378.38;2102182;28;20048;-68
2022/08/30 00:30:40;;;;;;;0.40;0.40;;;;;;;17.56;72.64;102374.88;2099928;28;20122;-69
2022/08/30 00:31:43;;;;;;;0.30;0.30;;;;;;;17.56;72.71;102374.06;2102033;28;20896;-69
2022/08/30 00:32:45;;;;;;;0.30;0.30;;;;;;;17.57;72.66;102378.38;2099618;28;20514;-69
2022/08/30 00:33:48;;;;;;;0.40;0.40;;;;;;;17.56;72.22;102377.59;2105688;28;20120;-69
2022/08/30 00:34:51;;;;;;;0.40;0.40;;;;;;;17.57;72.30;102370.97;2104355;28;20059;-69
2022/08/30 00:35:54;;;;;;;0.30;0.30;;;;;;;17.58;72.42;102380.75;2103153;28;20067;-69
2022/08/30 00:36:58;;;;;;;0.30;0.30;;;;;;;17.57;72.73;102375.63;2102512;28;20938;-69
2022/08/30 00:38:00;;;;;;;0.30;0.30;;;;;;;17.56;72.81;102372.13;2103179;28;20461;-69
2022/08/30 00:39:05;;;;;;;0.30;0.30;;;;;;;17.57;72.81;102372.91;2097100;28;20049;-69
2022/08/30 00:40:14;;;;;;;0.30;0.30;;;;;;;17.58;72.93;102375.28;2099193;28;20059;-69
2022/08/30 00:41:17;;;;;;;0.40;0.40;;;;;;;17.55;73.17;102380.69;2101784;28;20522;-69
2022/08/30 00:42:20;;;;;;;0.30;0.30;;;;;;;17.58;73.11;102374.50;2103822;28;20048;-69
2022/08/30 00:43:25;;;;;;;0.40;0.40;;;;;;;17.58;72.99;102375.28;2105062;28;20545;-69
2022/08/30 00:44:28;;;;;;;0.30;0.30;;;;;;;17.59;72.94;102376.09;2105052;28;20487;-69
2022/08/30 00:45:35;;;;;;;0.30;0.30;;;;;;;17.59;72.80;102370.63;2101726;28;20480;-69
2022/08/30 00:46:37;;;;;;;0.32;0.32;;;;;;;17.57;72.46;102378.38;2098421;28;20049;-70
2022/08/30 00:47:40;;;;;;;0.40;0.40;;;;;;;17.57;72.48;102372.91;2102025;28;20075;-69
2022/08/30 00:48:46;;;;;;;0.30;0.30;;;;;;;17.58;72.48;102374.50;2103279;28;20051;-69
2022/08/30 00:49:54;;;;;;;0.30;0.30;;;;;;;17.59;72.25;102370.63;2097511;28;20048;-69
2022/08/30 00:50:59;;;;;;;0.30;0.30;;;;;;;17.57;72.53;102368.25;2097719;28;20052;-69
2022/08/30 00:52:04;;;;;;;0.40;0.40;;;;;;;17.59;72.94;102378.81;2102470;28;20052;-69
2022/08/30 00:53:11;;;;;;;0.30;0.30;;;;;;;17.57;72.45;102368.25;2101371;28;20063;-69
2022/08/30 00:54:15;;;;;;;0.30;0.30;;;;;;;17.56;72.74;102371.31;2102300;28;20052;-69
2022/08/30 00:55:19;;;;;;;0.30;0.30;;;;;;;17.57;72.53;102375.63;2101427;28;20130;-69
2022/08/30 00:56:25;;;;;;;0.30;0.30;;;;;;;17.58;72.89;102377.25;2098765;28;20051;-69
2022/08/30 00:57:27;;;;;;;0.30;0.30;;;;;;;17.57;73.06;102372.91;2105531;28;20071;-69
2022/08/30 00:58:35;;;;;;;0.30;0.30;;;;;;;17.59;72.84;102370.63;2103806;28;20125;-70
2022/08/30 00:59:37;;;;;;;0.30;0.30;;;;;;;17.58;73.00;102374.50;2101948;28;20052;-70
2022/08/30 01:00:40;;;;;;;0.30;0.30;;;;;;;17.58;73.11;102371.78;2103962;28;20052;-69
2022/08/30 01:01:43;;;;;;;0.32;0.32;;;;;;;17.59;73.15;102376.09;2101877;28;20060;-69
2022/08/30 01:02:45;;;;;;;0.30;0.30;;;;;;;17.60;72.90;102372.22;2105240;28;20613;-69
2022/08/30 01:03:52;;;;;;;0.40;0.40;;;;;;;17.59;72.88;102370.63;2097887;28;20049;-69
2022/08/30 01:04:54;;;;;;;0.30;0.30;;;;;;;17.59;72.82;102373.34;2101092;28;20132;-69
2022/08/30 01:05:58;;;;;;;0.32;0.32;;;;;;;17.60;72.80;102372.22;2103220;28;20504;-69
2022/08/30 01:07:00;;;;;;;0.30;0.30;;;;;;;17.58;72.80;102372.56;2105113;28;20056;-69
2022/08/30 01:08:03;;;;;;;0.30;0.30;;;;;;;17.58;73.22;102379.97;2105518;28;20075;-69
2022/08/30 01:09:06;;;;;;;0.30;0.30;;;;;;;17.60;72.84;102369.50;2099280;28;20113;-69
2022/08/30 01:10:13;;;;;;;0.30;0.30;;;;;;;17.60;72.88;102372.22;2103454;28;20763;-69
2022/08/30 01:11:20;;;;;;;0.40;0.40;;;;;;;17.58;73.07;102378.00;2103880;28;20177;-69
2022/08/30 01:12:23;;;;;;;0.20;0.20;;;;;;;17.55;73.24;102380.69;2097508;28;20082;-69
2022/08/30 01:13:26;;;;;;;0.32;0.32;;;;;;;17.57;73.12;102372.91;2105027;28;20533;-69
2022/08/30 01:14:32;;;;;;;0.30;0.30;;;;;;;17.57;73.14;102372.91;2097967;28;20483;-69
2022/08/30 01:15:34;;;;;;;0.30;0.30;;;;;;;17.56;73.13;102376.78;2097830;28;20053;-69
2022/08/30 01:16:38;;;;;;;0.30;0.30;;;;;;;17.57;72.78;102386.56;2102725;28;20731;-69
2022/08/30 01:17:43;;;;;;;0.30;0.30;;;;;;;17.56;73.12;102384.97;2099252;28;20044;-69
2022/08/30 01:18:46;;;;;;;0.30;0.30;;;;;;;17.55;73.21;102381.44;2100851;28;20162;-69
2022/08/30 01:19:55;;;;;;;0.40;0.40;;;;;;;17.54;73.28;102379.06;2104414;28;20067;-69
2022/08/30 01:21:09;;;;;;;0.40;0.40;;;;;;;17.53;73.10;102386.50;2101677;28;20125;-69
2022/08/30 01:22:20;;;;;;;0.40;0.40;;;;;;;17.51;73.08;102390.69;2100558;28;20052;-69
2022/08/30 01:23:25;;;;;;;0.30;0.30;;;;;;;17.52;73.39;102386.84;2097764;28;20048;-70
2022/08/30 01:24:29;;;;;;;0.40;0.40;;;;;;;17.52;73.21;102386.84;2099917;28;20056;-69
2022/08/30 01:25:35;;;;;;;0.32;0.32;;;;;;;17.52;73.19;102386.84;2102046;28;20052;-69
2022/08/30 01:26:38;;;;;;;0.30;0.30;;;;;;;17.51;73.39;102385.22;2105583;28;20077;-69
2022/08/30 01:27:45;;;;;;;0.30;0.30;;;;;;;17.50;73.31;102383.66;2103467;28;20128;-69
2022/08/30 01:28:52;;;;;;;0.30;0.30;;;;;;;17.49;73.25;102388.31;2100881;28;20553;-68
2022/08/30 01:29:54;;;;;;;0.30;0.30;;;;;;;17.46;73.50;102378.09;2102706;28;20048;-69
2022/08/30 01:30:57;;;;;;;0.40;0.40;;;;;;;17.48;73.56;102383.22;2100430;28;20048;-69
2022/08/30 01:31:59;;;;;;;0.30;0.30;;;;;;;17.49;73.74;102387.53;2097335;28;20102;-69
2022/08/30 01:33:04;;;;;;;0.30;0.30;;;;;;;17.48;73.36;102375.81;2101144;28;20598;-69
2022/08/30 01:34:06;;;;;;;0.30;0.30;;;;;;;17.50;73.22;102383.66;2104610;28;20536;-69
2022/08/30 01:35:10;;;;;;;0.40;0.40;;;;;;;17.50;73.23;102378.19;2103543;28;20762;-69
2022/08/30 01:36:13;;;;;;;0.38;0.38;;;;;;;17.48;73.47;102381.28;2104849;28;20402;-68
2022/08/30 01:37:19;;;;;;;0.30;0.30;;;;;;;17.47;73.54;102381.63;2105060;28;20056;-69
2022/08/30 01:38:27;;;;;;;0.30;0.30;;;;;;;17.47;73.62;102387.09;2098429;28;20087;-69
2022/08/30 01:39:29;;;;;;;0.40;0.40;;;;;;;17.44;73.66;102390.50;2100347;28;20049;-69
2022/08/30 01:40:32;;;;;;;0.40;0.40;;;;;;;17.44;73.63;102390.50;2102606;28;20601;-69
2022/08/30 01:41:35;;;;;;;0.30;0.30;;;;;;;17.44;73.68;102390.50;2105016;28;20108;-69
2022/08/30 01:42:37;;;;;;;0.30;0.30;;;;;;;17.43;73.57;102397.88;2105433;28;20123;-69
2022/08/30 01:43:40;;;;;;;0.30;0.30;;;;;;;17.41;73.47;102386.50;2101370;28;20476;-69
2022/08/30 01:44:43;;;;;;;0.30;0.30;;;;;;;17.41;73.78;102388.47;2101184;28;20044;-70
2022/08/30 01:45:45;;;;;;;0.40;0.40;;;;;;;17.41;73.66;102391.97;2104326;28;20048;-69
2022/08/30 01:46:48;;;;;;;0.30;0.30;;;;;;;17.43;73.50;102394.34;2104878;28;20048;-69
2022/08/30 01:47:50;;;;;;;0.30;0.30;;;;;;;17.42;73.35;102390.03;2111579;28;20116;-69
2022/08/30 01:48:53;;;;;;;0.30;0.30;;;;;;;17.42;73.53;102396.31;2107488;28;20108;-69
2022/08/30 01:49:55;;;;;;;0.38;0.38;;;;;;;17.43;73.14;102397.88;2098737;28;20053;-68
2022/08/30 01:50:58;;;;;;;0.32;0.32;;;;;;;17.43;73.53;102397.88;2104247;28;20419;-69
2022/08/30 01:52:00;;;;;;;0.40;0.40;;;;;;;17.40;73.84;102393.13;2102736;28;20040;-68
2022/08/30 01:53:04;;;;;;;0.32;0.32;;;;;;;17.40;74.11;102392.31;2098564;28;20543;-69
2022/08/30 01:54:07;;;;;;;0.40;0.40;;;;;;;17.41;73.72;102396.66;2099499;28;20045;-69
2022/08/30 01:55:12;;;;;;;0.40;0.40;;;;;;;17.40;74.02;102392.31;2098081;28;20495;-69
2022/08/30 01:56:14;;;;;;;0.40;0.40;;;;;;;17.38;73.98;102395.41;2096663;28;20090;-69
2022/08/30 01:57:22;;;;;;;0.40;0.40;;;;;;;17.40;74.11;102395.03;2103794;28;20051;-69
2022/08/30 01:58:24;;;;;;;0.30;0.30;;;;;;;17.38;74.06;102398.13;2101101;28;20060;-69
2022/08/30 01:59:27;;;;;;;0.32;0.32;;;;;;;17.38;73.80;102395.41;2097843;28;20048;-69
2022/08/30 02:00:29;;;;;;;0.40;0.40;;;;;;;17.38;73.75;102402.78;2101763;28;20087;-69
2022/08/30 02:01:35;;;;;;;0.40;0.40;;;;;;;17.39;73.92;102396.19;2099932;28;20109;-69
2022/08/30 02:02:38;;;;;;;0.30;0.30;;;;;;;17.37;73.82;102403.94;2104551;28;20063;-69
2022/08/30 02:03:41;;;;;;;0.40;0.40;;;;;;;17.38;74.02;102402.78;2103363;28;20495;-69
2022/08/30 02:04:46;;;;;;;0.30;0.30;;;;;;;17.32;73.85;102396.78;2103064;28;20040;-66
2022/08/30 02:05:49;;;;;;;0.38;0.38;;;;;;;17.36;74.00;102391.44;2101382;28;20127;-69
2022/08/30 02:06:52;;;;;;;0.40;0.40;;;;;;;17.34;74.13;102399.19;2101387;28;20056;-69
2022/08/30 02:07:55;;;;;;;0.38;0.38;;;;;;;17.35;74.22;102392.56;2099774;28;20862;-69
2022/08/30 02:08:59;;;;;;;0.40;0.40;;;;;;;17.35;73.92;102392.56;2104191;28;20051;-69
2022/08/30 02:10:04;;;;;;;0.30;0.30;;;;;;;17.36;74.16;102396.91;2099272;28;20128;-69
2022/08/30 02:11:08;;;;;;;0.40;0.40;;;;;;;17.33;73.89;102387.44;2098281;28;20105;-68
2022/08/30 02:12:11;;;;;;;0.40;0.40;;;;;;;17.32;73.94;102393.25;2104043;28;20453;-69
2022/08/30 02:13:13;;;;;;;0.40;0.40;;;;;;;17.31;74.07;102391.69;2104616;28;20054;-69
2022/08/30 02:14:15;;;;;;;0.30;0.30;;;;;;;17.31;74.05;102388.94;2099747;28;20125;-69
2022/08/30 02:15:21;;;;;;;0.30;0.30;;;;;;;17.28;74.19;102386.91;2100366;28;20512;-69
2022/08/30 02:16:26;;;;;;;0.32;0.32;;;;;;;17.28;74.51;102393.16;2101078;28;20048;-69
2022/08/30 02:17:28;;;;;;;0.40;0.40;;;;;;;17.22;74.76;102389.09;2098098;28;20085;-69
2022/08/30 02:18:33;;;;;;;0.40;0.40;;;;;;;17.22;74.60;102391.81;2105057;28;20056;-68
2022/08/30 02:19:35;;;;;;;0.40;0.40;;;;;;;17.18;74.74;102390.13;2104110;28;20048;-69
2022/08/30 02:20:39;;;;;;;0.30;0.30;;;;;;;17.14;75.08;102392.75;2101006;28;20496;-69
2022/08/30 02:21:41;;;;;;;0.38;0.38;;;;;;;17.14;74.78;102386.53;2101622;28;20060;-69
2022/08/30 02:22:44;;;;;;;0.30;0.30;;;;;;;17.11;75.09;102381.75;2098544;28;20040;-69
2022/08/30 02:23:50;;;;;;;0.30;0.30;;;;;;;17.11;74.60;102387.22;2102910;28;20048;-69
2022/08/30 02:24:53;;;;;;;0.30;0.30;;;;;;;17.10;74.64;102382.88;2096311;28;20059;-69
2022/08/30 02:25:57;;;;;;;0.40;0.40;;;;;;;17.09;74.81;102387.56;2096551;28;20044;-68
2022/08/30 02:27:00;;;;;;;0.32;0.32;;;;;;;17.07;74.72;102380.84;2097619;28;20151;-69
2022/08/30 02:28:03;;;;;;;0.30;0.30;;;;;;;17.08;74.58;102387.88;2102863;28;20522;-69
2022/08/30 02:29:06;;;;;;;0.40;0.40;;;;;;;17.09;74.42;102389.50;2098629;28;20060;-69
2022/08/30 02:30:09;;;;;;;0.30;0.30;;;;;;;17.08;74.38;102382.44;2104616;28;20089;-64
2022/08/30 02:31:12;;;;;;;0.40;0.40;;;;;;;17.11;74.24;102384.50;2099716;28;20049;-65
2022/08/30 02:32:14;;;;;;;0.40;0.40;;;;;;;17.10;74.41;102383.69;2099155;28;20427;-64
2022/08/30 02:33:17;;;;;;;0.30;0.30;;;;;;;17.11;74.55;102385.28;2100258;28;20125;-65
2022/08/30 02:34:20;;;;;;;0.30;0.30;;;;;;;17.10;74.38;102388.34;2102530;28;20514;-64
2022/08/30 02:35:22;;;;;;;0.40;0.40;;;;;;;17.12;73.96;102394.25;2101541;28;20051;-64
2022/08/30 02:36:24;;;;;;;0.30;0.30;;;;;;;17.10;74.15;102391.88;2100340;28;20411;-64
2022/08/30 02:37:27;;;;;;;0.40;0.40;;;;;;;17.09;74.15;102395.75;2098249;28;20491;-64
2022/08/30 02:38:29;;;;;;;0.30;0.30;;;;;;;17.11;73.94;102395.41;2100209;28;20105;-66
2022/08/30 02:39:32;;;;;;;0.30;0.30;;;;;;;17.10;73.90;102396.53;2097459;28;20049;-65
2022/08/30 02:40:34;;;;;;;0.38;0.38;;;;;;;17.05;74.39;102392.13;2098147;28;20579;-64
2022/08/30 02:41:42;;;;;;;0.30;0.30;;;;;;;17.03;74.19;102393.63;2097384;28;20049;-64
2022/08/30 02:42:44;;;;;;;0.30;0.30;;;;;;;17.02;74.12;102392.81;2097083;28;20086;-65
2022/08/30 02:43:47;;;;;;;0.30;0.30;;;;;;;17.02;74.17;102400.19;2100290;28;20051;-65
2022/08/30 02:44:49;;;;;;;0.40;0.40;;;;;;;17.03;73.94;102390.88;2097227;28;20507;-64
2022/08/30 02:45:53;;;;;;;0.30;0.30;;;;;;;17.04;74.06;102397.94;2098251;28;20052;-64
2022/08/30 02:46:55;;;;;;;0.20;0.20;;;;;;;17.03;74.05;102396.34;2100341;28;20436;-64
2022/08/30 02:47:58;;;;;;;0.30;0.30;;;;;;;17.05;74.02;102407.69;2103077;28;20495;-65
2022/08/30 02:49:00;;;;;;;0.32;0.32;;;;;;;17.03;74.01;102404.53;2103876;28;20127;-65
2022/08/30 02:50:24;;;;;;;0.30;0.30;;;;;;;17.00;74.00;102397.03;2101998;28;20052;-64
2022/08/30 02:51:26;;;;;;;0.30;0.30;;;;;;;16.99;74.04;102398.16;2104356;28;20567;-64
2022/08/30 02:52:28;;;;;;;0.30;0.30;;;;;;;17.00;73.93;102392.34;2099083;28;20088;-64
2022/08/30 02:53:30;;;;;;;0.30;0.30;;;;;;;17.01;73.91;102409.53;2100732;28;20056;-66
2022/08/30 02:54:34;;;;;;;0.30;0.30;;;;;;;17.01;73.81;102410.34;2103564;28;20059;-64
2022/08/30 02:55:36;;;;;;;0.30;0.30;;;;;;;16.99;74.12;102407.16;2104916;28;20052;-64
2022/08/30 02:56:39;;;;;;;0.30;0.30;;;;;;;17.00;73.94;102402.50;2100862;28;20048;-64
2022/08/30 02:57:43;;;;;;;0.35;0.35;;;;;;;17.00;73.91;102397.81;2098690;28;20099;-64
2022/08/30 02:58:47;;;;;;;0.30;0.30;;;;;;;16.97;73.85;102398.50;2100991;28;20105;-64
2022/08/30 02:59:49;;;;;;;0.35;0.35;;;;;;;16.98;73.76;102399.31;2098844;28;20108;-65
2022/08/30 03:00:51;;;;;;;0.30;0.30;;;;;;;16.97;73.83;102398.50;2096719;28;20150;-65
2022/08/30 03:01:54;;;;;;;0.30;0.30;;;;;;;16.97;73.67;102408.63;2096653;28;20060;-64
2022/08/30 03:02:58;;;;;;;0.30;0.30;;;;;;;16.95;73.72;102400.78;2099451;28;20106;-64
2022/08/30 03:04:00;;;;;;;0.20;0.20;;;;;;;16.94;73.71;102398.41;2102210;28;20198;-64
2022/08/30 03:05:05;;;;;;;0.40;0.40;;;;;;;16.92;73.76;102400.69;2102827;28;20423;-64
2022/08/30 03:06:09;;;;;;;0.30;0.30;;;;;;;16.90;73.66;102401.03;2098756;28;20060;-64
2022/08/30 03:07:12;;;;;;;0.40;0.40;;;;;;;16.91;73.93;102401.81;2097773;28;20052;-63
2022/08/30 03:08:14;;;;;;;0.30;0.30;;;;;;;16.88;74.13;102402.50;2103270;28;20122;-64
2022/08/30 03:09:17;;;;;;;0.20;0.20;;;;;;;16.86;74.21;102400.13;2103456;28;20112;-64
2022/08/30 03:10:19;;;;;;;0.30;0.30;;;;;;;16.87;73.91;102398.97;2103477;28;20071;-64
2022/08/30 03:11:22;;;;;;;0.30;0.30;;;;;;;16.84;74.08;102398.91;2104539;28;20051;-64
2022/08/30 03:12:24;;;;;;;0.30;0.30;;;;;;;16.83;74.18;102402.75;2099511;28;20166;-64
2022/08/30 03:13:29;;;;;;;0.20;0.20;;;;;;;16.83;74.28;102398.09;2100333;28;20446;-64
2022/08/30 03:14:31;;;;;;;0.30;0.30;;;;;;;16.79;74.37;102397.19;2099263;28;20116;-64
2022/08/30 03:15:34;;;;;;;0.30;0.30;;;;;;;16.80;74.16;102397.97;2098017;28;20081;-64
2022/08/30 03:16:36;;;;;;;0.30;0.30;;;;;;;16.79;74.44;102399.13;2106598;28;20113;-64
2022/08/30 03:17:39;;;;;;;0.30;0.30;;;;;;;16.75;74.41;102392.75;2104129;28;20044;-64
2022/08/30 03:18:42;;;;;;;0.30;0.30;;;;;;;16.75;74.39;102390.03;2102832;28;20109;-64
2022/08/30 03:19:45;;;;;;;0.30;0.30;;;;;;;16.75;74.54;102392.75;2104387;28;20468;-64
2022/08/30 03:20:47;;;;;;;0.30;0.30;;;;;;;16.72;74.25;102388.00;2098799;28;20109;-64
2022/08/30 03:21:56;;;;;;;0.32;0.32;;;;;;;16.70;74.41;102393.78;2106863;28;20048;-64
2022/08/30 03:22:58;;;;;;;0.40;0.40;;;;;;;16.67;74.64;102390.94;2105153;28;20105;-63
2022/08/30 03:24:01;;;;;;;0.30;0.30;;;;;;;16.65;74.54;102395.97;2102518;28;20106;-64
2022/08/30 03:25:03;;;;;;;0.30;0.30;;;;;;;16.64;74.53;102392.44;2104269;28;20055;-64
2022/08/30 03:26:06;;;;;;;0.40;0.40;;;;;;;16.60;74.71;102393.47;2102680;28;20119;-64
2022/08/30 03:27:08;;;;;;;0.30;0.30;;;;;;;16.59;74.87;102389.16;2102496;28;20104;-65
2022/08/30 03:28:11;;;;;;;0.30;0.30;;;;;;;16.56;75.07;102390.63;2101146;28;20420;-64
2022/08/30 03:29:14;;;;;;;0.30;0.30;;;;;;;16.54;74.89;102390.19;2098492;28;20060;-64
2022/08/30 03:30:19;;;;;;;0.30;0.30;;;;;;;16.53;74.89;102394.06;2098711;28;20101;-65
2022/08/30 03:31:20;;;;;;;0.30;0.30;;;;;;;16.53;74.72;102396.78;2106156;28;20126;-64
2022/08/30 03:32:24;;;;;;;0.30;0.30;;;;;;;16.53;74.94;102398.72;2102093;28;20129;-64
2022/08/30 03:33:26;;;;;;;0.30;0.30;;;;;;;16.51;74.74;102396.31;2101236;28;20052;-64
2022/08/30 03:34:29;;;;;;;0.30;0.30;;;;;;;16.53;74.65;102398.72;2102212;28;20492;-64
2022/08/30 03:35:30;;;;;;;0.30;0.30;;;;;;;16.52;74.60;102399.84;2099718;28;20101;-64
2022/08/30 03:36:35;;;;;;;0.30;0.30;;;;;;;16.51;74.58;102401.00;2099615;28;20109;-65
2022/08/30 03:37:36;;;;;;;0.22;0.22;;;;;;;16.49;74.57;102397.81;2105750;28;20060;-64
2022/08/30 03:38:40;;;;;;;0.30;0.30;;;;;;;16.49;74.34;102406.00;2103511;28;20492;-64
2022/08/30 03:39:44;;;;;;;0.35;0.35;;;;;;;16.48;74.53;102407.13;2104008;28;20104;-64
2022/08/30 03:40:47;;;;;;;0.30;0.30;;;;;;;16.46;74.59;102399.28;2103294;28;20056;-65
2022/08/30 03:41:49;;;;;;;0.30;0.30;;;;;;;16.46;74.32;102403.97;2099004;28;20131;-64
2022/08/30 03:42:53;;;;;;;0.30;0.30;;;;;;;16.43;74.44;102408.09;2099709;28;20156;-64
2022/08/30 03:43:55;;;;;;;0.30;0.30;;;;;;;16.38;74.63;102403.69;2099015;28;20079;-64
2022/08/30 03:45:05;;;;;;;0.30;0.30;;;;;;;16.39;74.60;102404.50;2099127;28;20060;-64
2022/08/30 03:46:07;;;;;;;0.30;0.30;;;;;;;16.36;74.76;102399.72;2105682;28;20052;-65
2022/08/30 03:47:10;;;;;;;0.28;0.28;;;;;;;16.34;74.98;102408.25;2103522;28;20072;-64
2022/08/30 03:48:12;;;;;;;0.30;0.30;;;;;;;16.32;75.23;102413.22;2102798;28;20048;-64
2022/08/30 03:49:15;;;;;;;0.40;0.40;;;;;;;16.31;75.12;102410.84;2102220;28;20109;-64
2022/08/30 03:50:17;;;;;;;0.30;0.30;;;;;;;16.30;75.08;102406.50;2100753;28;20534;-64
2022/08/30 03:51:20;;;;;;;0.30;0.30;;;;;;;16.29;75.11;102415.84;2101303;28;20056;-65
2022/08/30 03:52:22;;;;;;;0.30;0.30;;;;;;;16.27;75.39;102410.72;2098737;28;20458;-64
2022/08/30 03:53:25;;;;;;;0.30;0.30;;;;;;;16.26;75.37;102417.31;2101745;28;20056;-64
2022/08/30 03:54:28;;;;;;;0.30;0.30;;;;;;;16.25;75.32;102410.28;2102674;28;20123;-64
2022/08/30 03:55:30;;;;;;;0.40;0.40;;;;;;;16.25;75.34;102410.28;2104169;28;20068;-65
2022/08/30 03:56:32;;;;;;;0.30;0.30;;;;;;;16.25;75.30;102414.94;2101225;28;20117;-64
2022/08/30 03:57:35;;;;;;;0.30;0.30;;;;;;;16.24;75.33;102416.06;2105204;28;20120;-65
2022/08/30 03:58:39;;;;;;;0.40;0.40;;;;;;;16.21;75.46;102406.66;2100909;28;20053;-64
2022/08/30 03:59:41;;;;;;;0.30;0.30;;;;;;;16.20;75.19;102418.69;2100660;28;20052;-64
2022/08/30 04:00:45;;;;;;;0.40;0.40;;;;;;;16.20;75.23;102415.97;2105073;28;20075;-65
2022/08/30 04:01:47;;;;;;;0.30;0.30;;;;;;;16.18;75.34;102417.44;2104837;28;20134;-64
2022/08/30 04:02:50;;;;;;;0.35;0.35;;;;;;;16.17;75.18;102416.63;2100265;28;20071;-65
2022/08/30 04:03:52;;;;;;;0.40;0.40;;;;;;;16.14;74.97;102411.84;2098433;28;20080;-64
2022/08/30 04:04:55;;;;;;;0.40;0.40;;;;;;;16.15;75.24;102409.94;2100912;28;20131;-64
2022/08/30 04:05:57;;;;;;;0.32;0.32;;;;;;;16.12;75.30;102413.34;2101335;28;20096;-65
2022/08/30 04:07:00;;;;;;;0.40;0.40;;;;;;;16.11;75.59;102411.75;2097886;28;20576;-64
2022/08/30 04:08:02;;;;;;;0.30;0.30;;;;;;;16.10;75.46;102415.59;2103097;28;20048;-64
2022/08/30 04:09:06;;;;;;;0.40;0.40;;;;;;;16.09;75.39;102412.06;2104651;28;20048;-64
2022/08/30 04:10:08;;;;;;;0.40;0.40;;;;;;;16.08;74.95;102410.50;2098361;28;20113;-65
2022/08/30 04:11:13;;;;;;;0.30;0.30;;;;;;;16.06;74.66;102409.25;2104660;28;20052;-64
2022/08/30 04:12:15;;;;;;;0.40;0.40;;;;;;;16.05;75.25;102413.09;2106031;28;20055;-64
2022/08/30 04:13:24;;;;;;;0.40;0.40;;;;;;;16.01;75.44;102415.72;2098232;28;20101;-64
2022/08/30 04:14:26;;;;;;;0.40;0.40;;;;;;;15.98;75.27;102404.69;2103899;28;20494;-64
2022/08/30 04:15:29;;;;;;;0.40;0.40;;;;;;;16.00;75.32;102416.84;2103807;28;20466;-65
2022/08/30 04:16:33;;;;;;;0.50;0.50;;;;;;;15.99;75.16;102411.72;2103409;28;20469;-65
2022/08/30 04:17:36;;;;;;;0.43;0.43;;;;;;;15.97;75.37;102409.34;2105208;28;20048;-65
2022/08/30 04:18:37;;;;;;;0.40;0.40;;;;;;;15.97;75.15;102414.78;2100574;28;20049;-64
2022/08/30 04:19:40;;;;;;;0.40;0.40;;;;;;;15.94;75.15;102414.66;2104784;28;20131;-65
2022/08/30 04:20:42;;;;;;;0.40;0.40;;;;;;;15.96;75.72;102407.75;2104913;28;20047;-65
2022/08/30 04:21:45;;;;;;;0.40;0.40;;;;;;;15.94;75.17;102414.66;2097821;28;20057;-65
2022/08/30 04:22:47;;;;;;;0.40;0.40;;;;;;;15.93;75.15;102413.91;2101068;28;20599;-65
2022/08/30 04:23:50;;;;;;;0.47;0.47;;;;;;;15.93;75.24;102405.72;2100275;28;20044;-65
2022/08/30 04:24:52;;;;;;;0.40;0.40;;;;;;;15.91;75.19;102410.69;2102400;28;20546;-64
2022/08/30 04:25:56;;;;;;;0.43;0.43;;;;;;;15.93;75.27;102413.09;2099343;28;20052;-64
2022/08/30 04:26:58;;;;;;;0.40;0.40;;;;;;;15.91;75.23;102413.44;2104656;28;20063;-64
2022/08/30 04:28:01;;;;;;;0.30;0.30;;;;;;;15.90;75.32;102417.25;2104606;28;20733;-64
2022/08/30 04:29:03;;;;;;;0.40;0.40;;;;;;;15.89;75.28;102418.41;2104000;28;20056;-65
2022/08/30 04:30:07;;;;;;;0.40;0.40;;;;;;;15.91;75.17;102418.06;2103839;28;20121;-64
2022/08/30 04:31:11;;;;;;;0.40;0.40;;;;;;;15.88;75.08;102419.56;2103551;28;20060;-65
2022/08/30 04:32:18;;;;;;;0.40;0.40;;;;;;;15.85;75.04;102416.69;2099866;28;20044;-64
2022/08/30 04:33:20;;;;;;;0.47;0.47;;;;;;;15.82;75.41;102410.00;2103824;28;20079;-64
2022/08/30 04:34:23;;;;;;;0.40;0.40;;;;;;;15.82;75.19;102411.94;2100920;28;20048;-64
2022/08/30 04:35:25;;;;;;;0.50;0.50;;;;;;;15.79;75.37;102416.09;2101709;28;20135;-64
2022/08/30 04:36:28;;;;;;;0.40;0.40;;;;;;;15.77;75.63;102415.66;2105679;28;20101;-64
2022/08/30 04:37:30;;;;;;;0.40;0.40;;;;;;;15.74;75.79;102416.34;2103289;28;20048;-64
2022/08/30 04:38:37;;;;;;;0.50;0.50;;;;;;;15.71;75.91;102411.56;2100090;28;20385;-64
2022/08/30 04:39:39;;;;;;;0.40;0.40;;;;;;;15.69;75.80;102418.47;2101372;28;20048;-63
2022/08/30 04:40:43;;;;;;;0.50;0.50;;;;;;;15.66;76.01;102417.22;2099911;28;20048;-64
2022/08/30 04:41:45;;;;;;;0.50;0.50;;;;;;;15.63;76.18;102420.63;2097661;28;20393;-65
2022/08/30 04:42:52;;;;;;;0.50;0.50;;;;;;;15.62;76.43;102410.84;2097698;28;20084;-64
2022/08/30 04:43:54;;;;;;;0.50;0.50;;;;;;;15.60;76.27;102415.81;2102449;28;20054;-64
2022/08/30 04:44:58;;;;;;;0.50;0.50;;;;;;;15.62;75.96;102415.53;2101500;28;20052;-64
2022/08/30 04:46:05;;;;;;;0.40;0.40;;;;;;;15.61;76.10;102422.06;2098085;28;20051;-65
2022/08/30 04:47:08;;;;;;;0.50;0.50;;;;;;;15.59;76.27;102416.97;2101069;28;20067;-64
2022/08/30 04:48:11;;;;;;;0.50;0.50;;;;;;;15.57;76.33;102415.72;2100576;28;20181;-64
2022/08/30 04:49:15;;;;;;;0.50;0.50;;;;;;;15.52;76.43;102416.75;2098244;28;20105;-65
2022/08/30 04:50:19;;;;;;;0.50;0.50;;;;;;;15.52;76.41;102418.66;2103001;28;20048;-64
2022/08/30 04:51:22;;;;;;;0.50;0.50;;;;;;;15.46;76.52;102420.78;2102708;28;20059;-64
2022/08/30 04:52:24;;;;;;;0.60;0.60;;;;;;;15.43;76.91;102426.88;2104956;28;20076;-64
2022/08/30 04:53:27;;;;;;;0.50;0.50;;;;;;;15.40;76.94;102422.13;2100854;28;20056;-64
2022/08/30 04:54:29;;;;;;;0.50;0.50;;;;;;;15.37;76.85;102424.66;2098869;28;20049;-64
2022/08/30 04:55:32;;;;;;;0.50;0.50;;;;;;;15.32;76.87;102425.69;2103339;28;20059;-64